Waterman — PIMU — position and weather

sailwx.info

Track history (hours):
 
Tides and Currents Weather Stations Pressure Air Temp Water Temp Dewpoint Dewpoint Depression Visibility Wind Speed Wind Dir Waves Ship Positions

Waterman

Last reported at 2014-Nov-26 23:33 UTC. Time now 2014-Nov-27 00:19 UTC.
Position N 51°55' E 004°33'.

Length 26 m; draft 3.2 m.

Type: Tug. MMSI: 245128000.

Date/timePositionNaut miles runAvg speedWind from/ knotsBaromVisibWave heightAir tempDewpointWater temp
2014-Nov-26 23:33N 51°55' E 004°33'0 0.0
2014-Nov-26 22:34N 51°55' E 004°33'0 0.0
2014-Nov-26 21:34N 51°55' E 004°33'0 0.0
2014-Nov-26 20:33N 51°55' E 004°33'0 0.0
2014-Nov-26 19:33N 51°55' E 004°33'0 0.0
2014-Nov-26 18:33N 51°55' E 004°33'0 0.0
2014-Nov-26 17:33N 51°55' E 004°33'0 0.0
2014-Nov-26 16:33N 51°55' E 004°33'0 0.0
2014-Nov-26 15:32N 51°55' E 004°33'3 2.8
2014-Nov-26 14:33N 51°54' E 004°29'3 3.3
2014-Nov-26 13:33N 51°54' E 004°24'5 5.1
2014-Nov-26 12:33N 51°54' E 004°16'6 5.6
2014-Nov-26 11:33N 51°58' E 004°08'5 4.7
2014-Nov-26 10:34N 51°60' E 004°01'6 5.5
2014-Nov-26 09:32N 52°01' E 003°52'6 6.4
2014-Nov-26 08:31N 52°06' E 003°47'6 5.9
2014-Nov-26 07:30N 52°12' E 003°46'6 5.5
2014-Nov-26 06:27N 52°18' E 003°47'6 5.1
2014-Nov-26 05:21N 52°23' E 003°49'28 5.7
2014-Nov-26 00:32N 52°46' E 004°17'11 7.7
2014-Nov-25 23:04N 52°56' E 004°24'6 7.7
2014-Nov-25 22:17N 53°01' E 004°29'6 7.3
2014-Nov-25 21:24N 53°07' E 004°34'8 6.4
2014-Nov-25 20:13N 53°13' E 004°41'4 5.5
2014-Nov-25 19:33N 53°16' E 004°45'6 5.6
2014-Nov-25 18:33N 53°20' E 004°52'6 5.8
2014-Nov-25 17:33N 53°24' E 004°59'7 7.1
2014-Nov-25 16:33N 53°27' E 005°10'8 8.4
2014-Nov-25 15:33N 53°30' E 005°23'9 8.7
2014-Nov-25 14:33N 53°33' E 005°37'8 8.2
2014-Nov-25 13:33N 53°34' E 005°50'8 7.7
2014-Nov-25 12:33N 53°36' E 006°03'7 6.5
2014-Nov-25 11:32N 53°36' E 006°14'8 5.5
2014-Nov-25 10:04N 53°37' E 006°28'3 4.9
2014-Nov-25 09:33N 53°37' E 006°32'5 5.0
2014-Nov-25 08:32N 53°34' E 006°39'5 4.8
2014-Nov-25 07:34N 53°31' E 006°45'5 5.1
2014-Nov-25 06:33N 53°27' E 006°50'0 0.0
2014-Nov-25 05:33N 53°27' E 006°50'0 0.0
2014-Nov-25 04:34N 53°27' E 006°50'0 0.0
2014-Nov-25 03:33N 53°27' E 006°50'0 0.0
2014-Nov-25 02:33N 53°27' E 006°50'0 0.0
2014-Nov-25 01:34N 53°27' E 006°50'0 0.0
2014-Nov-25 00:34N 53°27' E 006°50'0 0.0
2014-Nov-24 23:33N 53°27' E 006°50'0 0.0
2014-Nov-24 22:33N 53°27' E 006°50'0 0.0
2014-Nov-24 21:34N 53°27' E 006°50'0 0.0
2014-Nov-24 20:33N 53°27' E 006°50'0 0.0
2014-Nov-24 19:33N 53°27' E 006°50'0 0.0
2014-Nov-24 18:33N 53°27' E 006°50'0 0.0
2014-Nov-24 17:33N 53°27' E 006°50'0 0.0
2014-Nov-24 16:33N 53°27' E 006°50'0 0.0
2014-Nov-24 15:33N 53°27' E 006°50'0 0.0
2014-Nov-24 14:33N 53°27' E 006°50'0 0.0
2014-Nov-24 13:34N 53°27' E 006°50'0 0.0
2014-Nov-24 12:33N 53°27' E 006°50'0 0.0
2014-Nov-24 11:33N 53°27' E 006°50'0 0.0
2014-Nov-24 10:33N 53°27' E 006°50'0 0.0
2014-Nov-24 09:33N 53°27' E 006°50'0 0.0
2014-Nov-24 08:33N 53°27' E 006°50'0 0.0
2014-Nov-24 07:34N 53°27' E 006°50'0 0.0
2014-Nov-24 06:34N 53°27' E 006°50'0 0.0
2014-Nov-24 05:33N 53°27' E 006°50'0 0.0
2014-Nov-24 04:34N 53°27' E 006°50'0 0.0
2014-Nov-24 03:33N 53°27' E 006°50'0 0.0
2014-Nov-24 02:34N 53°27' E 006°50'0 0.0
2014-Nov-24 01:34N 53°27' E 006°50'0 0.0
2014-Nov-24 00:33N 53°27' E 006°50'0 0.0
2014-Nov-23 23:34N 53°27' E 006°50'0 0.0
2014-Nov-23 22:33N 53°27' E 006°50'0 0.0
2014-Nov-23 21:33N 53°27' E 006°50'0 0.0
2014-Nov-23 20:33N 53°27' E 006°50'0 0.0
2014-Nov-23 19:34N 53°27' E 006°50'0 0.0
2014-Nov-23 18:33N 53°27' E 006°50'0 0.0
2014-Nov-23 17:33N 53°27' E 006°50'0 0.0
2014-Nov-23 16:33N 53°27' E 006°50'0 0.0
2014-Nov-23 15:33N 53°27' E 006°50'0 0.0
2014-Nov-23 14:33N 53°27' E 006°50'0 0.0
2014-Nov-23 13:33N 53°27' E 006°50'0 0.0
2014-Nov-23 12:33N 53°27' E 006°50'0 0.0
2014-Nov-23 11:33N 53°27' E 006°50'1 1.3
2014-Nov-23 10:33N 53°28' E 006°50'8 7.9
2014-Nov-23 09:33N 53°34' E 006°40'33 5.3
2014-Nov-23 03:18N 53°52' E 007°27'6 8.2
2014-Nov-23 02:33N 53°53' E 007°37'8 7.7
2014-Nov-23 01:33N 53°56' E 007°49'7 7.0
2014-Nov-23 00:33N 53°58' E 008°00'6 6.5
2014-Nov-22 23:33N 54°00' E 008°11'7 6.6
2014-Nov-22 22:33N 53°60' E 008°22'6 5.8
2014-Nov-22 21:33N 53°58' E 008°31'5 5.2
2014-Nov-22 20:33N 53°56' E 008°40'7 7.4
2014-Nov-22 19:33N 53°51' E 008°48'1010.0
2014-Nov-22 18:33N 53°52' E 009°04'3 3.0
2014-Nov-22 17:33N 53°54' E 009°09'6 5.8
2014-Nov-22 16:33N 53°58' E 009°15'7 7.0
2014-Nov-22 15:33N 54°05' E 009°19'8 6.9
2014-Nov-22 14:26N 54°11' E 009°27'7 6.9
2014-Nov-22 13:27N 54°15' E 009°37'19 6.1
2014-Nov-22 10:18N 54°22' E 010°07'1 1.2
2014-Nov-22 09:33N 54°22' E 010°08'0 0.4
2014-Nov-22 08:33N 54°22' E 010°09'0 0.0
2014-Nov-22 07:28N 54°22' E 010°09'0 0.0
2014-Nov-22 06:28N 54°22' E 010°09'0 0.0
2014-Nov-22 05:28N 54°22' E 010°09'0 0.0
2014-Nov-22 04:22N 54°22' E 010°09'0 0.0
2014-Nov-22 03:28N 54°22' E 010°09'0 0.0
2014-Nov-22 02:28N 54°22' E 010°09'0 0.0
2014-Nov-22 01:28N 54°22' E 010°09'0 0.0
2014-Nov-22 00:28N 54°22' E 010°09'0 0.0
2014-Nov-21 23:28N 54°22' E 010°09'0 0.0
2014-Nov-21 22:22N 54°22' E 010°09'0 0.0
2014-Nov-21 21:28N 54°22' E 010°09'0 0.0
2014-Nov-21 20:22N 54°22' E 010°09'0 0.0
2014-Nov-21 19:28N 54°22' E 010°09'0 0.0
2014-Nov-21 18:28N 54°22' E 010°09'0 0.0
2014-Nov-21 17:28N 54°22' E 010°09'0 0.0
2014-Nov-21 16:31N 54°22' E 010°09'0 0.0
2014-Nov-21 15:31N 54°22' E 010°09'0 0.0
2014-Nov-21 14:33N 54°22' E 010°09'8 6.5
2014-Nov-21 13:19N 54°29' E 010°16'6 7.4
2014-Nov-21 12:33N 54°31' E 010°24'38 7.5
2014-Nov-21 07:28N 54°31' E 011°30'7 7.2
2014-Nov-21 06:33N 54°28' E 011°40'7 7.0
2014-Nov-21 05:32N 54°26' E 011°52'7 7.0
2014-Nov-21 04:33N 54°26' E 012°03'7 6.6
2014-Nov-21 03:33N 54°31' E 012°12'201 6.9
2014-Nov-19 22:30N 54°55' E 017°57'6 6.8
2014-Nov-19 21:33N 54°55' E 018°08'7 6.9
2014-Nov-19 20:33N 54°56' E 018°20'7 7.1
2014-Nov-19 19:33N 54°57' E 018°32'7 7.2
2014-Nov-19 18:33N 54°53' E 018°43'7 7.4
2014-Nov-19 17:33N 54°48' E 018°53'7 6.9
2014-Nov-19 16:33N 54°42' E 018°59'7 7.2
2014-Nov-19 15:33N 54°35' E 018°54'7 7.0
2014-Nov-19 14:33N 54°30' E 018°46'6 6.3
2014-Nov-19 13:33N 54°25' E 018°39'4 3.6
2014-Nov-19 12:33N 54°22' E 018°39'0 0.3
2014-Nov-19 11:33N 54°22' E 018°39'0 0.0
2014-Nov-19 10:33N 54°22' E 018°39'0 0.0
2014-Nov-19 09:33N 54°22' E 018°39'0 0.0
2014-Nov-19 08:33N 54°22' E 018°39'0 0.0
2014-Nov-19 07:33N 54°22' E 018°39'0 0.0
2014-Nov-19 06:33N 54°22' E 018°39'0 0.0
2014-Nov-19 05:33N 54°22' E 018°39'0 0.0
2014-Nov-19 04:33N 54°22' E 018°39'0 0.0
2014-Nov-19 03:33N 54°22' E 018°39'0 0.0
2014-Nov-19 02:33N 54°22' E 018°39'0 0.0
2014-Nov-19 01:33N 54°22' E 018°39'0 0.0
2014-Nov-19 00:33N 54°22' E 018°39'0 0.0
2014-Nov-18 23:33N 54°22' E 018°39'0 0.0
2014-Nov-18 22:33N 54°22' E 018°39'0 0.0
2014-Nov-18 21:33N 54°22' E 018°39'0 0.0
2014-Nov-18 20:33N 54°22' E 018°39'0 0.0
2014-Nov-18 19:33N 54°22' E 018°39'0 0.0
2014-Nov-18 18:33N 54°22' E 018°39'0 0.0
2014-Nov-18 17:33N 54°22' E 018°39'0 0.0
2014-Nov-18 16:33N 54°22' E 018°39'0 0.0
2014-Nov-18 15:33N 54°22' E 018°39'0 0.0
2014-Nov-18 14:33N 54°22' E 018°39'0 0.0
2014-Nov-18 13:33N 54°22' E 018°39'0 0.0
2014-Nov-18 12:33N 54°22' E 018°39'0 0.0
2014-Nov-18 11:33N 54°22' E 018°39'0 0.0
2014-Nov-18 10:33N 54°22' E 018°39'0 0.0
2014-Nov-18 09:33N 54°22' E 018°39'0 0.0
2014-Nov-18 08:33N 54°22' E 018°39'0 0.0
2014-Nov-18 07:33N 54°22' E 018°39'0 0.0
2014-Nov-18 06:33N 54°22' E 018°39'0 0.0
2014-Nov-18 05:33N 54°22' E 018°39'0 0.0
2014-Nov-18 04:33N 54°22' E 018°39'0 0.0
2014-Nov-18 03:33N 54°22' E 018°39'0 0.0
2014-Nov-18 02:33N 54°22' E 018°39'0 0.0
2014-Nov-18 01:33N 54°22' E 018°39'0 0.0
2014-Nov-18 00:33N 54°22' E 018°39'0 0.0
2014-Nov-17 23:33N 54°22' E 018°39'0 0.0
2014-Nov-17 22:33N 54°22' E 018°39'0 0.0
2014-Nov-17 21:33N 54°22' E 018°39'0 0.0
2014-Nov-17 20:33N 54°22' E 018°39'0 0.0
2014-Nov-17 19:33N 54°22' E 018°39'0 0.0
2014-Nov-17 18:33N 54°22' E 018°39'0 0.0
2014-Nov-17 17:33N 54°22' E 018°39'0 0.0
2014-Nov-17 16:33N 54°22' E 018°39'0 0.0
2014-Nov-17 15:33N 54°22' E 018°39'0 0.0
2014-Nov-17 14:33N 54°22' E 018°39'0 0.0
2014-Nov-17 13:33N 54°22' E 018°39'0 0.0
2014-Nov-17 12:33N 54°22' E 018°39'0 0.0
2014-Nov-17 11:33N 54°22' E 018°39'0 0.0
2014-Nov-17 10:33N 54°22' E 018°39'0 0.0
2014-Nov-17 09:33N 54°22' E 018°39'0 0.0
2014-Nov-17 08:33N 54°22' E 018°39'0 0.0
2014-Nov-17 07:33N 54°22' E 018°39'0 0.0
2014-Nov-17 06:33N 54°22' E 018°39'0 0.0
2014-Nov-17 05:33N 54°22' E 018°39'0 0.0
2014-Nov-17 04:33N 54°22' E 018°39'0 0.0
2014-Nov-17 03:33N 54°22' E 018°39'0 0.0
2014-Nov-17 02:33N 54°22' E 018°39'0 0.0
2014-Nov-17 01:33N 54°22' E 018°39'0 0.0
2014-Nov-17 00:33N 54°22' E 018°39'0 0.0
2014-Nov-16 23:33N 54°22' E 018°39'  
Track history (hours):
 
Tides and Currents Weather Stations Pressure Air Temp Water Temp Dewpoint Dewpoint Depression Visibility Wind Speed Wind Dir Waves Ship Positions

Waterman

Last reported at 2014-Nov-26 23:33 UTC. Time now 2014-Nov-27 00:19 UTC.
Position N 51°55' E 004°33'.

Length 26 m; draft 3.2 m.

Type: Tug. MMSI: 245128000.

Date/timePositionNaut miles runAvg speedWind from/ knotsBaromVisibWave heightAir tempDewpointWater temp
2014-Nov-26 23:33N 51°55' E 004°33'0 0.0
2014-Nov-26 22:34N 51°55' E 004°33'0 0.0
2014-Nov-26 21:34N 51°55' E 004°33'0 0.0
2014-Nov-26 20:33N 51°55' E 004°33'0 0.0
2014-Nov-26 19:33N 51°55' E 004°33'0 0.0
2014-Nov-26 18:33N 51°55' E 004°33'0 0.0
2014-Nov-26 17:33N 51°55' E 004°33'0 0.0
2014-Nov-26 16:33N 51°55' E 004°33'0 0.0
2014-Nov-26 15:32N 51°55' E 004°33'3 2.8
2014-Nov-26 14:33N 51°54' E 004°29'3 3.3
2014-Nov-26 13:33N 51°54' E 004°24'5 5.1
2014-Nov-26 12:33N 51°54' E 004°16'6 5.6
2014-Nov-26 11:33N 51°58' E 004°08'5 4.7
2014-Nov-26 10:34N 51°60' E 004°01'6 5.5
2014-Nov-26 09:32N 52°01' E 003°52'6 6.4
2014-Nov-26 08:31N 52°06' E 003°47'6 5.9
2014-Nov-26 07:30N 52°12' E 003°46'6 5.5
2014-Nov-26 06:27N 52°18' E 003°47'6 5.1
2014-Nov-26 05:21N 52°23' E 003°49'28 5.7
2014-Nov-26 00:32N 52°46' E 004°17'11 7.7
2014-Nov-25 23:04N 52°56' E 004°24'6 7.7
2014-Nov-25 22:17N 53°01' E 004°29'6 7.3
2014-Nov-25 21:24N 53°07' E 004°34'8 6.4
2014-Nov-25 20:13N 53°13' E 004°41'4 5.5
2014-Nov-25 19:33N 53°16' E 004°45'6 5.6
2014-Nov-25 18:33N 53°20' E 004°52'6 5.8
2014-Nov-25 17:33N 53°24' E 004°59'7 7.1
2014-Nov-25 16:33N 53°27' E 005°10'8 8.4
2014-Nov-25 15:33N 53°30' E 005°23'9 8.7
2014-Nov-25 14:33N 53°33' E 005°37'8 8.2
2014-Nov-25 13:33N 53°34' E 005°50'8 7.7
2014-Nov-25 12:33N 53°36' E 006°03'7 6.5
2014-Nov-25 11:32N 53°36' E 006°14'8 5.5
2014-Nov-25 10:04N 53°37' E 006°28'3 4.9
2014-Nov-25 09:33N 53°37' E 006°32'5 5.0
2014-Nov-25 08:32N 53°34' E 006°39'5 4.8
2014-Nov-25 07:34N 53°31' E 006°45'5 5.1
2014-Nov-25 06:33N 53°27' E 006°50'0 0.0
2014-Nov-25 05:33N 53°27' E 006°50'0 0.0
2014-Nov-25 04:34N 53°27' E 006°50'0 0.0
2014-Nov-25 03:33N 53°27' E 006°50'0 0.0
2014-Nov-25 02:33N 53°27' E 006°50'0 0.0
2014-Nov-25 01:34N 53°27' E 006°50'0 0.0
2014-Nov-25 00:34N 53°27' E 006°50'0 0.0
2014-Nov-24 23:33N 53°27' E 006°50'0 0.0
2014-Nov-24 22:33N 53°27' E 006°50'0 0.0
2014-Nov-24 21:34N 53°27' E 006°50'0 0.0
2014-Nov-24 20:33N 53°27' E 006°50'0 0.0
2014-Nov-24 19:33N 53°27' E 006°50'0 0.0
2014-Nov-24 18:33N 53°27' E 006°50'0 0.0
2014-Nov-24 17:33N 53°27' E 006°50'0 0.0
2014-Nov-24 16:33N 53°27' E 006°50'0 0.0
2014-Nov-24 15:33N 53°27' E 006°50'0 0.0
2014-Nov-24 14:33N 53°27' E 006°50'0 0.0
2014-Nov-24 13:34N 53°27' E 006°50'0 0.0
2014-Nov-24 12:33N 53°27' E 006°50'0 0.0
2014-Nov-24 11:33N 53°27' E 006°50'0 0.0
2014-Nov-24 10:33N 53°27' E 006°50'0 0.0
2014-Nov-24 09:33N 53°27' E 006°50'0 0.0
2014-Nov-24 08:33N 53°27' E 006°50'0 0.0
2014-Nov-24 07:34N 53°27' E 006°50'0 0.0
2014-Nov-24 06:34N 53°27' E 006°50'0 0.0
2014-Nov-24 05:33N 53°27' E 006°50'0 0.0
2014-Nov-24 04:34N 53°27' E 006°50'0 0.0
2014-Nov-24 03:33N 53°27' E 006°50'0 0.0
2014-Nov-24 02:34N 53°27' E 006°50'0 0.0
2014-Nov-24 01:34N 53°27' E 006°50'0 0.0
2014-Nov-24 00:33N 53°27' E 006°50'0 0.0
2014-Nov-23 23:34N 53°27' E 006°50'0 0.0
2014-Nov-23 22:33N 53°27' E 006°50'0 0.0
2014-Nov-23 21:33N 53°27' E 006°50'0 0.0
2014-Nov-23 20:33N 53°27' E 006°50'0 0.0
2014-Nov-23 19:34N 53°27' E 006°50'0 0.0
2014-Nov-23 18:33N 53°27' E 006°50'0 0.0
2014-Nov-23 17:33N 53°27' E 006°50'0 0.0
2014-Nov-23 16:33N 53°27' E 006°50'0 0.0
2014-Nov-23 15:33N 53°27' E 006°50'0 0.0
2014-Nov-23 14:33N 53°27' E 006°50'0 0.0
2014-Nov-23 13:33N 53°27' E 006°50'0 0.0
2014-Nov-23 12:33N 53°27' E 006°50'0 0.0
2014-Nov-23 11:33N 53°27' E 006°50'1 1.3
2014-Nov-23 10:33N 53°28' E 006°50'8 7.9
2014-Nov-23 09:33N 53°34' E 006°40'33 5.3
2014-Nov-23 03:18N 53°52' E 007°27'6 8.2
2014-Nov-23 02:33N 53°53' E 007°37'8 7.7
2014-Nov-23 01:33N 53°56' E 007°49'7 7.0
2014-Nov-23 00:33N 53°58' E 008°00'6 6.5
2014-Nov-22 23:33N 54°00' E 008°11'7 6.6
2014-Nov-22 22:33N 53°60' E 008°22'6 5.8
2014-Nov-22 21:33N 53°58' E 008°31'5 5.2
2014-Nov-22 20:33N 53°56' E 008°40'7 7.4
2014-Nov-22 19:33N 53°51' E 008°48'1010.0
2014-Nov-22 18:33N 53°52' E 009°04'3 3.0
2014-Nov-22 17:33N 53°54' E 009°09'6 5.8
2014-Nov-22 16:33N 53°58' E 009°15'7 7.0
2014-Nov-22 15:33N 54°05' E 009°19'8 6.9
2014-Nov-22 14:26N 54°11' E 009°27'7 6.9
2014-Nov-22 13:27N 54°15' E 009°37'19 6.1
2014-Nov-22 10:18N 54°22' E 010°07'1 1.2
2014-Nov-22 09:33N 54°22' E 010°08'0 0.4
2014-Nov-22 08:33N 54°22' E 010°09'0 0.0
2014-Nov-22 07:28N 54°22' E 010°09'0 0.0
2014-Nov-22 06:28N 54°22' E 010°09'0 0.0
2014-Nov-22 05:28N 54°22' E 010°09'0 0.0
2014-Nov-22 04:22N 54°22' E 010°09'0 0.0
2014-Nov-22 03:28N 54°22' E 010°09'0 0.0
2014-Nov-22 02:28N 54°22' E 010°09'0 0.0
2014-Nov-22 01:28N 54°22' E 010°09'0 0.0
2014-Nov-22 00:28N 54°22' E 010°09'0 0.0
2014-Nov-21 23:28N 54°22' E 010°09'0 0.0
2014-Nov-21 22:22N 54°22' E 010°09'0 0.0
2014-Nov-21 21:28N 54°22' E 010°09'0 0.0
2014-Nov-21 20:22N 54°22' E 010°09'0 0.0
2014-Nov-21 19:28N 54°22' E 010°09'0 0.0
2014-Nov-21 18:28N 54°22' E 010°09'0 0.0
2014-Nov-21 17:28N 54°22' E 010°09'0 0.0
2014-Nov-21 16:31N 54°22' E 010°09'0 0.0
2014-Nov-21 15:31N 54°22' E 010°09'0 0.0
2014-Nov-21 14:33N 54°22' E 010°09'8 6.5
2014-Nov-21 13:19N 54°29' E 010°16'6 7.4
2014-Nov-21 12:33N 54°31' E 010°24'38 7.5
2014-Nov-21 07:28N 54°31' E 011°30'7 7.2
2014-Nov-21 06:33N 54°28' E 011°40'7 7.0
2014-Nov-21 05:32N 54°26' E 011°52'7 7.0
2014-Nov-21 04:33N 54°26' E 012°03'7 6.6
2014-Nov-21 03:33N 54°31' E 012°12'201 6.9
2014-Nov-19 22:30N 54°55' E 017°57'6 6.8
2014-Nov-19 21:33N 54°55' E 018°08'7 6.9
2014-Nov-19 20:33N 54°56' E 018°20'7 7.1
2014-Nov-19 19:33N 54°57' E 018°32'7 7.2
2014-Nov-19 18:33N 54°53' E 018°43'7 7.4
2014-Nov-19 17:33N 54°48' E 018°53'7 6.9
2014-Nov-19 16:33N 54°42' E 018°59'7 7.2
2014-Nov-19 15:33N 54°35' E 018°54'7 7.0
2014-Nov-19 14:33N 54°30' E 018°46'6 6.3
2014-Nov-19 13:33N 54°25' E 018°39'4 3.6
2014-Nov-19 12:33N 54°22' E 018°39'0 0.3
2014-Nov-19 11:33N 54°22' E 018°39'0 0.0
2014-Nov-19 10:33N 54°22' E 018°39'0 0.0
2014-Nov-19 09:33N 54°22' E 018°39'0 0.0
2014-Nov-19 08:33N 54°22' E 018°39'0 0.0
2014-Nov-19 07:33N 54°22' E 018°39'0 0.0
2014-Nov-19 06:33N 54°22' E 018°39'0 0.0
2014-Nov-19 05:33N 54°22' E 018°39'0 0.0
2014-Nov-19 04:33N 54°22' E 018°39'0 0.0
2014-Nov-19 03:33N 54°22' E 018°39'0 0.0
2014-Nov-19 02:33N 54°22' E 018°39'0 0.0
2014-Nov-19 01:33N 54°22' E 018°39'0 0.0
2014-Nov-19 00:33N 54°22' E 018°39'0 0.0
2014-Nov-18 23:33N 54°22' E 018°39'0 0.0
2014-Nov-18 22:33N 54°22' E 018°39'0 0.0
2014-Nov-18 21:33N 54°22' E 018°39'0 0.0
2014-Nov-18 20:33N 54°22' E 018°39'0 0.0
2014-Nov-18 19:33N 54°22' E 018°39'0 0.0
2014-Nov-18 18:33N 54°22' E 018°39'0 0.0
2014-Nov-18 17:33N 54°22' E 018°39'0 0.0
2014-Nov-18 16:33N 54°22' E 018°39'0 0.0
2014-Nov-18 15:33N 54°22' E 018°39'0 0.0
2014-Nov-18 14:33N 54°22' E 018°39'0 0.0
2014-Nov-18 13:33N 54°22' E 018°39'0 0.0
2014-Nov-18 12:33N 54°22' E 018°39'0 0.0
2014-Nov-18 11:33N 54°22' E 018°39'0 0.0
2014-Nov-18 10:33N 54°22' E 018°39'0 0.0
2014-Nov-18 09:33N 54°22' E 018°39'0 0.0
2014-Nov-18 08:33N 54°22' E 018°39'0 0.0
2014-Nov-18 07:33N 54°22' E 018°39'0 0.0
2014-Nov-18 06:33N 54°22' E 018°39'0 0.0
2014-Nov-18 05:33N 54°22' E 018°39'0 0.0
2014-Nov-18 04:33N 54°22' E 018°39'0 0.0
2014-Nov-18 03:33N 54°22' E 018°39'0 0.0
2014-Nov-18 02:33N 54°22' E 018°39'0 0.0
2014-Nov-18 01:33N 54°22' E 018°39'0 0.0
2014-Nov-18 00:33N 54°22' E 018°39'0 0.0
2014-Nov-17 23:33N 54°22' E 018°39'0 0.0
2014-Nov-17 22:33N 54°22' E 018°39'0 0.0
2014-Nov-17 21:33N 54°22' E 018°39'0 0.0
2014-Nov-17 20:33N 54°22' E 018°39'0 0.0
2014-Nov-17 19:33N 54°22' E 018°39'0 0.0
2014-Nov-17 18:33N 54°22' E 018°39'0 0.0
2014-Nov-17 17:33N 54°22' E 018°39'0 0.0
2014-Nov-17 16:33N 54°22' E 018°39'0 0.0
2014-Nov-17 15:33N 54°22' E 018°39'0 0.0
2014-Nov-17 14:33N 54°22' E 018°39'0 0.0
2014-Nov-17 13:33N 54°22' E 018°39'0 0.0
2014-Nov-17 12:33N 54°22' E 018°39'0 0.0
2014-Nov-17 11:33N 54°22' E 018°39'0 0.0
2014-Nov-17 10:33N 54°22' E 018°39'0 0.0
2014-Nov-17 09:33N 54°22' E 018°39'0 0.0
2014-Nov-17 08:33N 54°22' E 018°39'0 0.0
2014-Nov-17 07:33N 54°22' E 018°39'0 0.0
2014-Nov-17 06:33N 54°22' E 018°39'0 0.0
2014-Nov-17 05:33N 54°22' E 018°39'0 0.0
2014-Nov-17 04:33N 54°22' E 018°39'0 0.0
2014-Nov-17 03:33N 54°22' E 018°39'0 0.0
2014-Nov-17 02:33N 54°22' E 018°39'0 0.0
2014-Nov-17 01:33N 54°22' E 018°39'0 0.0
2014-Nov-17 00:33N 54°22' E 018°39'0 0.0
2014-Nov-16 23:33N 54°22' E 018°39'  

Dump ship's entire track history